Time;durP1;ratioP1;P1;durP2;ratioP2;P2;SDS_P1;SDS_P2;PMS_P1;PMS_P2;Temp;Humidity;BMP_temperature;BMP_pressure;BME280_temperature;BME280_humidity;BME280_pressure;Samples;Min_cycle;Max_cycle;Signal;HPM_P1;HPM_P2
2021/06/06 00:00:23;;;;;;;5.27;2.67;;;;;;;13.76;100.00;99921.97;1656950;85;21598;-68
2021/06/06 00:02:52;;;;;;;4.60;2.47;;;;;;;13.81;100.00;99925.27;1672598;85;20963;-68
2021/06/06 00:05:19;;;;;;;4.47;2.50;;;;;;;13.94;100.00;99926.98;1666011;85;21110;-68
2021/06/06 00:07:45;;;;;;;6.70;2.13;;;;;;;13.92;100.00;99922.47;1665866;85;20995;-68
2021/06/06 00:10:13;;;;;;;7.40;2.20;;;;;;;13.87;100.00;99923.91;1642604;87;22350;-68
2021/06/06 00:12:40;;;;;;;6.03;2.53;;;;;;;13.86;100.00;99919.70;1642049;86;20998;-69
2021/06/06 00:15:12;;;;;;;4.30;2.50;;;;;;;13.83;100.00;99919.31;1642240;86;21638;-69
2021/06/06 00:17:38;;;;;;;5.30;2.70;;;;;;;13.91;100.00;99919.05;1633305;87;21533;-69
2021/06/06 00:20:07;;;;;;;4.77;2.47;;;;;;;13.90;100.00;99913.49;1658779;85;21038;-69
2021/06/06 00:22:35;;;;;;;4.97;2.63;;;;;;;13.90;100.00;99915.31;1641899;87;21560;-68
2021/06/06 00:25:04;;;;;;;4.30;2.40;;;;;;;13.85;100.00;99916.76;1642800;87;21042;-70
2021/06/06 00:27:31;;;;;;;8.70;2.53;;;;;;;13.77;100.00;99915.71;1643628;87;21082;-70
2021/06/06 00:29:58;;;;;;;6.27;2.73;;;;;;;13.82;100.00;99917.69;1641771;86;21515;-70
2021/06/06 00:32:25;;;;;;;5.30;2.33;;;;;;;13.78;100.00;99916.51;1630907;87;21023;-69
2021/06/06 00:34:52;;;;;;;7.03;2.70;;;;;;;13.74;100.00;99917.44;1640482;87;21201;-70
2021/06/06 00:37:19;;;;;;;5.43;2.43;;;;;;;13.74;100.00;99917.44;1641379;87;21022;-70
2021/06/06 00:39:46;;;;;;;6.17;2.20;;;;;;;13.75;100.00;99919.55;1641012;87;21027;-71
2021/06/06 00:42:13;;;;;;;4.10;2.73;;;;;;;13.69;100.00;99926.45;1631653;87;21123;-70
2021/06/06 00:44:40;;;;;;;4.63;2.50;;;;;;;13.63;100.00;99928.59;1619932;86;21015;-65
2021/06/06 00:47:08;;;;;;;6.50;3.10;;;;;;;13.60;100.00;99923.28;1615604;88;21320;-70
2021/06/06 00:49:35;;;;;;;6.33;3.80;;;;;;;13.62;100.00;99921.24;1631593;86;21118;-71
2021/06/06 00:52:03;;;;;;;8.13;3.93;;;;;;;13.60;100.00;99920.67;1660366;86;21768;-68
2021/06/06 00:54:42;;;;;;;6.17;3.47;;;;;;;13.56;100.00;99926.52;1642372;87;20980;-71
2021/06/06 00:57:14;;;;;;;6.93;3.60;;;;;;;13.57;100.00;99924.22;1642585;87;21456;-70
2021/06/06 00:59:50;;;;;;;6.30;3.53;;;;;;;13.58;100.00;99914.03;1660422;85;20918;-70
2021/06/06 01:02:17;;;;;;;4.97;3.27;;;;;;;13.56;100.00;99917.34;1629904;87;21507;-70
2021/06/06 01:04:45;;;;;;;4.20;2.60;;;;;;;13.56;100.00;99919.48;1636085;87;21085;-69
2021/06/06 01:07:12;;;;;;;8.90;3.33;;;;;;;13.57;100.00;99921.08;1612496;88;21380;-71
2021/06/06 01:09:42;;;;;;;6.07;2.83;;;;;;;13.55;100.00;99919.68;1639802;87;20951;-68
2021/06/06 01:12:16;;;;;;;3.87;2.20;;;;;;;13.55;100.00;99924.41;1592859;88;21376;-71
2021/06/06 01:14:54;;;;;;;8.37;3.20;;;;;;;13.53;100.00;99919.90;1639760;87;20967;-70
2021/06/06 01:17:49;;;;;;;5.83;3.00;;;;;;;13.48;100.00;99913.67;1620883;87;21539;-65
2021/06/06 01:20:24;;;;;;;7.27;3.17;;;;;;;13.56;100.00;99912.11;1690828;84;21097;-71
2021/06/06 01:23:01;;;;;;;5.73;3.03;;;;;;;13.54;100.00;99915.46;1603598;87;21050;-70
2021/06/06 01:25:42;;;;;;;7.10;3.27;;;;;;;13.57;100.00;99911.92;1667585;86;21148;-71
2021/06/06 01:28:22;;;;;;;7.53;3.13;;;;;;;13.63;100.00;99916.30;1638494;85;20962;-71
2021/06/06 01:30:54;;;;;;;6.70;3.20;;;;;;;13.56;100.00;99914.73;1667390;84;21023;-69
2021/06/06 01:33:25;;;;;;;8.20;3.75;;;;;;;13.53;100.00;99913.35;1662227;85;20975;-71
2021/06/06 01:35:57;;;;;;;4.67;3.00;;;;;;;13.57;100.00;99915.05;1666908;86;20907;-71
2021/06/06 01:38:41;;;;;;;5.10;2.70;;;;;;;13.52;100.00;99913.55;1637992;87;21939;-64
2021/06/06 01:41:13;;;;;;;9.27;2.90;;;;;;;13.62;100.00;99912.59;1644798;85;21656;-70
2021/06/06 01:43:46;;;;;;;5.30;3.00;;;;;;;13.67;100.00;99910.64;1637993;87;20994;-70
2021/06/06 01:46:30;;;;;;;7.17;2.90;;;;;;;13.66;100.00;99911.66;1638417;87;22558;-69
2021/06/06 01:48:59;;;;;;;6.40;2.53;;;;;;;13.66;100.00;99911.66;1631423;86;21185;-71
2021/06/06 01:51:40;;;;;;;5.47;2.47;;;;;;;13.66;100.00;99899.36;1625762;86;22102;-70
2021/06/06 01:54:10;;;;;;;6.70;3.00;;;;;;;13.67;100.00;99897.03;1667780;85;20978;-69
2021/06/06 01:56:39;;;;;;;5.93;2.97;;;;;;;13.66;100.00;99894.13;1632187;86;21372;-70
2021/06/06 01:59:13;;;;;;;5.73;2.87;;;;;;;13.64;100.00;99896.17;1639874;87;20966;-70
2021/06/06 02:01:42;;;;;;;8.23;2.70;;;;;;;13.66;100.00;99901.19;1591940;88;21026;-70
2021/06/06 02:04:09;;;;;;;5.47;3.20;;;;;;;13.59;100.00;99911.19;1639756;87;23231;-69
2021/06/06 02:06:44;;;;;;;4.93;3.00;;;;;;;13.61;100.00;99917.03;1630274;86;21007;-69
2021/06/06 02:09:16;;;;;;;7.07;2.90;;;;;;;13.73;100.00;99916.35;1683645;84;21102;-70
2021/06/06 02:11:51;;;;;;;5.30;2.80;;;;;;;13.71;100.00;99910.51;1656491;85;21409;-68
2021/06/06 02:14:23;;;;;;;6.20;2.67;;;;;;;13.68;100.00;99904.41;1652656;86;21154;-67
2021/06/06 02:16:55;;;;;;;7.37;3.37;;;;;;;13.61;100.00;99908.38;1674158;85;21140;-68
2021/06/06 02:19:26;;;;;;;3.70;2.50;;;;;;;13.60;100.00;99908.08;1657915;86;20991;-68
2021/06/06 02:22:00;;;;;;;6.30;2.63;;;;;;;13.57;100.00;99918.98;1674796;85;20915;-70
2021/06/06 02:24:29;;;;;;;11.23;3.33;;;;;;;13.58;100.00;99921.88;1610898;86;21789;-64
2021/06/06 02:26:59;;;;;;;5.97;2.70;;;;;;;13.59;100.00;99916.94;1646255;86;21075;-71
2021/06/06 02:29:51;;;;;;;3.65;2.22;;;;;;;13.56;100.00;99916.04;1616858;87;22410;-69
2021/06/06 02:32:48;;;;;;;5.73;2.87;;;;;;;13.56;100.00;99906.88;1629616;85;20994;-70
2021/06/06 02:35:36;;;;;;;6.23;3.00;;;;;;;13.58;100.00;99910.89;1607176;85;21090;-67
2021/06/06 02:38:32;;;;;;;4.80;2.90;;;;;;;13.67;100.00;99903.58;1639303;85;21888;-73
2021/06/06 02:41:15;;;;;;;5.27;3.03;;;;;;;13.66;100.00;99901.19;1636083;85;20858;-72
2021/06/06 02:43:53;;;;;;;5.80;2.73;;;;;;;13.82;100.00;99901.45;1627388;85;21137;-64
2021/06/06 02:46:20;;;;;;;4.73;2.70;;;;;;;13.79;100.00;99894.05;1635157;85;21474;-72
2021/06/06 02:49:03;;;;;;;3.40;2.40;;;;;;;13.96;100.00;99893.52;1683831;84;20997;-69
2021/06/06 02:51:33;;;;;;;6.27;2.50;;;;;;;14.21;100.00;99889.59;1639132;85;21523;-65
2021/06/06 02:54:04;;;;;;;7.20;2.47;;;;;;;14.09;100.00;99893.39;1657130;84;21519;-69
2021/06/06 02:56:39;;;;;;;4.63;2.80;;;;;;;14.05;100.00;99893.53;1626334;85;20975;-73
2021/06/06 02:59:38;;;;;;;7.57;2.30;;;;;;;14.08;100.00;99896.52;1634449;85;21097;-73
2021/06/06 03:02:12;;;;;;;4.90;2.63;;;;;;;14.23;100.00;99884.40;1697059;82;63387;-69
2021/06/06 03:04:44;;;;;;;7.07;2.90;;;;;;;14.39;100.00;99889.59;1692179;84;21057;-68
2021/06/06 03:07:38;;;;;;;5.87;2.67;;;;;;;14.27;100.00;99893.44;1707930;82;21707;-70
2021/06/06 03:10:06;;;;;;;7.63;3.17;;;;;;;14.31;100.00;99897.23;1677949;84;21141;-66
2021/06/06 03:12:36;;;;;;;5.83;3.10;;;;;;;14.40;100.00;99892.53;1704646;83;21098;-66
2021/06/06 03:15:07;;;;;;;4.70;2.40;;;;;;;14.44;100.00;99896.31;1699798;84;21648;-69
2021/06/06 03:17:38;;;;;;;8.70;3.35;;;;;;;14.55;100.00;99893.01;1649277;85;20950;-69
2021/06/06 03:20:15;;;;;;;5.13;2.83;;;;;;;14.53;100.00;99897.66;1683566;83;20923;-66
2021/06/06 03:22:44;;;;;;;8.20;3.17;;;;;;;14.51;100.00;99900.22;1677128;84;21637;-70
2021/06/06 03:25:52;;;;;;;7.33;2.93;;;;;;;14.58;100.00;99897.83;1684197;84;21038;-69
2021/06/06 03:28:23;;;;;;;5.13;2.57;;;;;;;14.55;100.00;99897.45;1698356;84;21562;-69
2021/06/06 03:30:54;;;;;;;5.27;2.80;;;;;;;14.51;100.00;99899.71;1695714;84;21014;-69
2021/06/06 03:33:45;;;;;;;5.47;3.10;;;;;;;14.71;100.00;99898.19;1680402;83;21541;-67
2021/06/06 03:36:17;;;;;;;4.65;3.05;;;;;;;14.62;100.00;99896.05;1704163;84;21153;-68
2021/06/06 03:38:45;;;;;;;19.70;3.67;;;;;;;14.59;100.00;99895.48;1705174;82;21572;-68
2021/06/06 03:41:12;;;;;;;9.80;2.67;;;;;;;14.55;100.00;99898.25;1695165;84;21054;-68
2021/06/06 03:43:40;;;;;;;5.03;2.60;;;;;;;14.51;100.00;99897.60;1731558;82;21007;-67
2021/06/06 03:46:08;;;;;;;8.37;2.93;;;;;;;14.58;100.00;99902.24;1703719;83;21651;-69
2021/06/06 03:48:34;;;;;;;5.93;2.87;;;;;;;14.61;100.00;99897.88;1690806;84;22313;-68
2021/06/06 03:51:01;;;;;;;6.70;3.10;;;;;;;14.71;100.00;99904.74;1704597;84;20958;-69
2021/06/06 03:53:28;;;;;;;6.17;2.80;;;;;;;14.73;100.00;99897.44;1709991;82;21050;-69
2021/06/06 03:55:57;;;;;;;5.33;3.07;;;;;;;14.79;100.00;99897.88;1704274;84;21558;-66
2021/06/06 03:58:24;;;;;;;7.30;3.33;;;;;;;14.76;100.00;99902.25;1706655;82;21340;-68
2021/06/06 04:00:51;;;;;;;5.43;3.10;;;;;;;14.99;100.00;99900.78;1727943;82;22359;-69
2021/06/06 04:03:19;;;;;;;7.10;2.90;;;;;;;15.09;100.00;99905.02;1679132;84;21006;-67
2021/06/06 04:05:46;;;;;;;7.70;3.03;;;;;;;15.10;100.00;99898.73;1686393;85;20990;-69
2021/06/06 04:08:15;;;;;;;4.03;2.50;;;;;;;15.13;100.00;99898.30;1671503;85;22043;-70
2021/06/06 04:10:46;;;;;;;6.33;2.97;;;;;;;15.14;100.00;99898.58;1686274;85;21019;-70
2021/06/06 04:13:14;;;;;;;5.17;2.87;;;;;;;15.14;100.00;99901.20;1672395;85;21160;-70
2021/06/06 04:15:40;;;;;;;4.07;2.33;;;;;;;15.08;100.00;99898.17;1686146;85;21504;-68
2021/06/06 04:18:20;;;;;;;6.33;2.80;;;;;;;15.19;100.00;99895.28;1686893;84;21034;-70
2021/06/06 04:20:50;;;;;;;7.03;2.73;;;;;;;15.23;100.00;99893.84;1676854;84;21011;-69
2021/06/06 04:23:20;;;;;;;5.87;3.17;;;;;;;15.29;100.00;99897.67;1712078;82;21560;-72
2021/06/06 04:25:48;;;;;;;6.50;2.37;;;;;;;15.48;100.00;99895.00;1679887;84;21809;-68
2021/06/06 04:28:17;;;;;;;5.03;3.00;;;;;;;15.48;100.00;99894.48;1693406;83;21071;-72
2021/06/06 04:30:44;;;;;;;5.70;2.70;;;;;;;15.68;100.00;99883.73;1658935;85;21074;-68
2021/06/06 04:33:11;;;;;;;4.53;2.63;;;;;;;15.71;100.00;99885.89;1678050;84;21133;-69
2021/06/06 04:35:41;;;;;;;5.30;3.23;;;;;;;16.01;100.00;99885.02;1700854;84;20953;-67
2021/06/06 04:38:11;;;;;;;5.50;2.70;;;;;;;16.37;100.00;99878.75;1700587;84;21265;-70
2021/06/06 04:40:39;;;;;;;4.57;2.63;;;;;;;16.63;100.00;99880.09;1662832;84;21017;-70
2021/06/06 04:43:05;;;;;;;6.13;2.67;;;;;;;16.89;100.00;99869.56;1689860;84;21053;-69
2021/06/06 04:45:32;;;;;;;5.33;2.70;;;;;;;17.38;100.00;99867.83;1677529;85;21074;-69
2021/06/06 04:48:16;;;;;;;5.10;2.30;;;;;;;18.08;100.00;99860.81;1676987;84;21541;-67
2021/06/06 04:50:44;;;;;;;5.37;2.60;;;;;;;19.03;100.00;99861.51;1704492;82;21143;-71
2021/06/06 04:53:11;;;;;;;5.90;2.30;;;;;;;20.34;100.00;99858.88;1700864;84;20940;-70
2021/06/06 04:55:37;;;;;;;6.67;2.97;;;;;;;21.57;100.00;99852.09;1715811;82;20999;-69
2021/06/06 04:58:05;;;;;;;4.93;2.50;;;;;;;22.36;100.00;99845.09;1673419;84;21047;-70
2021/06/06 05:00:35;;;;;;;5.87;2.60;;;;;;;22.97;100.00;99849.63;1715157;82;20999;-70
2021/06/06 05:03:02;;;;;;;5.67;3.00;;;;;;;23.44;100.00;99850.88;1671420;84;21183;-70
2021/06/06 05:05:31;;;;;;;4.93;2.90;;;;;;;23.50;100.00;99855.11;1650813;84;21214;-69
2021/06/06 05:07:59;;;;;;;6.17;3.00;;;;;;;23.56;100.00;99859.84;1645673;85;21562;-70
2021/06/06 05:10:27;;;;;;;13.03;4.57;;;;;;;23.27;100.00;99863.80;1668329;85;21448;-68
2021/06/06 05:12:54;;;;;;;26.30;9.93;;;;;;;23.15;100.00;99855.38;1643966;86;21074;-68
2021/06/06 05:15:22;;;;;;;8.87;3.20;;;;;;;22.79;100.00;99857.65;1668629;84;22183;-69
2021/06/06 05:17:50;;;;;;;5.00;3.10;;;;;;;22.75;100.00;99860.59;1644062;85;20981;-67
2021/06/06 05:20:23;;;;;;;5.60;3.00;;;;;;;22.75;100.00;99865.13;1670955;84;21011;-69
2021/06/06 05:22:50;;;;;;;5.03;2.57;;;;;;;22.66;100.00;99868.09;1652105;85;21044;-69
2021/06/06 05:25:17;;;;;;;4.87;3.13;;;;;;;22.44;100.00;99859.14;1668180;85;21163;-68
2021/06/06 05:27:44;;;;;;;4.87;2.90;;;;;;;22.27;100.00;99860.77;1647829;85;21179;-67
2021/06/06 05:30:15;;;;;;;5.63;3.03;;;;;;;22.05;100.00;99863.73;1666832;85;21135;-68
2021/06/06 05:32:41;;;;;;;7.00;2.80;;;;;;;21.95;100.00;99861.09;1650862;84;28563;-69
2021/06/06 05:35:09;;;;;;;4.83;2.70;;;;;;;21.79;100.00;99858.98;1655977;84;21052;-67
2021/06/06 05:37:38;;;;;;;5.50;2.87;;;;;;;21.72;100.00;99853.95;1671024;84;20969;-68
2021/06/06 05:40:05;;;;;;;4.30;2.43;;;;;;;21.66;100.00;99856.33;1667748;84;22319;-68
2021/06/06 05:42:32;;;;;;;4.87;2.60;;;;;;;21.80;100.00;99852.61;1664389;84;21420;-67
2021/06/06 05:44:58;;;;;;;6.70;3.10;;;;;;;22.03;100.00;99852.04;1648933;84;21045;-67
2021/06/06 05:47:25;;;;;;;6.07;2.87;;;;;;;22.40;100.00;99846.14;1675562;84;21669;-68
2021/06/06 05:49:52;;;;;;;6.87;2.60;;;;;;;22.46;100.00;99843.17;1651373;84;20907;-66
2021/06/06 05:52:20;;;;;;;7.20;2.97;;;;;;;22.54;100.00;99846.63;1673630;84;21722;-67
2021/06/06 05:54:47;;;;;;;5.43;2.53;;;;;;;22.92;100.00;99846.19;1652956;86;21003;-67
2021/06/06 05:57:13;;;;;;;6.10;2.40;;;;;;;23.12;100.00;99846.61;1652235;85;21075;-68
2021/06/06 05:59:40;;;;;;;4.27;2.83;;;;;;;23.28;100.00;99851.55;1650457;85;20942;-68
2021/06/06 06:02:07;;;;;;;4.77;3.10;;;;;;;23.57;100.00;99842.03;1668726;83;21177;-66
2021/06/06 06:04:34;;;;;;;6.07;3.30;;;;;;;23.63;100.00;99845.67;1686671;83;22334;-68
2021/06/06 06:07:00;;;;;;;5.50;2.63;;;;;;;23.87;100.00;99843.11;1713546;82;21580;-67
2021/06/06 06:09:28;;;;;;;6.83;3.40;;;;;;;24.09;100.00;99837.81;1698034;82;20971;-67
2021/06/06 06:11:55;;;;;;;5.47;2.80;;;;;;;24.34;100.00;99834.88;1719379;82;21078;-67
2021/06/06 06:14:22;;;;;;;7.50;2.80;;;;;;;24.89;100.00;99827.80;1724389;82;21134;-68
2021/06/06 06:16:50;;;;;;;3.95;2.25;;;;;;;25.53;100.00;99826.30;1680934;84;21403;-69
2021/06/06 06:19:18;;;;;;;4.72;2.50;;;;;;;26.05;100.00;99822.22;1685717;84;20932;-68
2021/06/06 06:21:45;;;;;;;7.80;3.60;;;;;;;26.60;100.00;99825.68;1698582;82;21078;-67
2021/06/06 06:24:11;;;;;;;5.35;2.80;;;;;;;27.09;100.00;99822.72;1712530;82;21327;-66
2021/06/06 06:26:39;;;;;;;6.83;2.90;;;;;;;27.55;100.00;99822.17;1710575;82;22368;-66
2021/06/06 06:29:10;;;;;;;5.87;2.95;;;;;;;28.14;100.00;99822.76;1702142;82;21162;-67
2021/06/06 06:31:56;;;;;;;5.03;2.05;;;;;;;28.83;100.00;99825.61;1681018;85;21126;-67
2021/06/06 06:34:30;;;;;;;4.47;2.17;;;;;;;29.60;100.00;99813.01;1725623;82;21492;-70
2021/06/06 06:36:59;;;;;;;3.58;1.90;;;;;;;29.87;92.00;99821.98;1693376;84;21551;-68
2021/06/06 06:39:27;;;;;;;5.25;2.60;;;;;;;29.87;83.20;99819.86;1679459;85;21594;-67
2021/06/06 06:41:53;;;;;;;4.20;2.17;;;;;;;29.60;84.68;99821.84;1713218;82;21137;-67
2021/06/06 06:44:20;;;;;;;5.22;1.50;;;;;;;29.44;84.85;99826.13;1699263;84;21075;-69
2021/06/06 06:46:48;;;;;;;4.37;2.10;;;;;;;29.25;85.60;99825.93;1700725;84;21417;-68
2021/06/06 06:49:15;;;;;;;4.85;1.82;;;;;;;29.14;88.19;99817.97;1701212;82;21565;-68
2021/06/06 06:51:42;;;;;;;6.22;2.52;;;;;;;29.19;90.54;99811.08;1707489;83;21072;-70
2021/06/06 06:54:09;;;;;;;4.80;1.90;;;;;;;29.61;84.04;99814.58;1698116;84;21166;-71
2021/06/06 06:56:35;;;;;;;4.80;1.62;;;;;;;29.99;81.28;99818.61;1703069;83;21065;-69
2021/06/06 06:59:02;;;;;;;11.95;1.60;;;;;;;30.37;77.41;99804.36;1698882;84;21998;-69
2021/06/06 07:01:29;;;;;;;6.40;1.67;;;;;;;30.91;74.32;99807.14;1700717;82;21027;-69
2021/06/06 07:03:55;;;;;;;4.83;1.80;;;;;;;31.22;67.87;99804.80;1697374;84;20991;-67
2021/06/06 07:06:23;;;;;;;5.20;1.77;;;;;;;31.13;58.42;99812.16;1693000;83;22286;-67
2021/06/06 07:08:49;;;;;;;4.45;1.60;;;;;;;30.75;63.51;99818.50;1699038;83;21177;-68
2021/06/06 07:11:20;;;;;;;6.03;2.17;;;;;;;30.55;58.67;99821.96;1699756;83;21502;-68
2021/06/06 07:13:48;;;;;;;6.35;2.08;;;;;;;30.54;58.31;99825.21;1694507;84;20923;-68
2021/06/06 07:16:17;;;;;;;3.95;1.62;;;;;;;30.65;61.60;99820.23;1698049;83;21043;-68
2021/06/06 07:18:46;;;;;;;2.87;1.65;;;;;;;30.77;61.27;99824.36;1699793;84;21829;-68
2021/06/06 07:21:19;;;;;;;4.12;1.70;;;;;;;30.72;55.21;99825.88;1686349;82;21556;-70
2021/06/06 07:23:46;;;;;;;4.37;1.80;;;;;;;30.40;57.95;99826.57;1672006;85;21096;-69
2021/06/06 07:26:18;;;;;;;3.77;2.10;;;;;;;30.18;60.45;99819.02;1702559;83;20904;-68
2021/06/06 07:28:46;;;;;;;6.58;2.10;;;;;;;30.00;63.33;99812.93;1696819;83;20988;-68
2021/06/06 07:31:13;;;;;;;6.72;2.20;;;;;;;29.81;68.53;99827.30;1695807;84;21134;-68
2021/06/06 07:33:42;;;;;;;4.05;1.92;;;;;;;29.57;76.76;99826.48;1703659;83;21580;-69
2021/06/06 07:36:11;;;;;;;4.50;2.08;;;;;;;29.48;74.22;99824.38;1711101;83;20991;-68
2021/06/06 07:38:38;;;;;;;4.85;1.85;;;;;;;29.64;70.29;99820.66;1708425;83;21033;-68
2021/06/06 07:41:05;;;;;;;6.70;1.92;;;;;;;30.02;70.01;99819.31;1701969;83;21887;-68
2021/06/06 07:43:33;;;;;;;3.27;1.90;;;;;;;30.11;61.75;99821.39;1704302;83;21246;-67
2021/06/06 07:46:02;;;;;;;3.87;1.82;;;;;;;30.32;60.48;99819.34;1721036;82;21046;-67
2021/06/06 07:48:28;;;;;;;4.25;2.25;;;;;;;30.74;57.67;99817.50;1723017;82;21173;-69
2021/06/06 07:50:56;;;;;;;6.03;2.12;;;;;;;31.01;54.07;99818.29;1700244;84;22071;-72
2021/06/06 07:53:22;;;;;;;3.85;1.90;;;;;;;30.96;54.78;99818.50;1714346;82;21063;-74
2021/06/06 07:55:51;;;;;;;5.05;2.20;;;;;;;30.88;56.10;99826.09;1679568;84;21222;-71
2021/06/06 07:58:27;;;;;;;5.08;1.80;;;;;;;30.44;59.58;99824.80;1686909;84;21457;-69
2021/06/06 08:00:53;;;;;;;4.08;1.90;;;;;;;30.23;63.09;99828.78;1682628;84;21524;-71
2021/06/06 08:03:21;;;;;;;3.98;1.55;;;;;;;29.85;63.65;99824.75;1714531;82;21099;-71
2021/06/06 08:05:49;;;;;;;5.12;2.40;;;;;;;29.95;68.82;99827.09;1698674;84;21006;-69
2021/06/06 08:08:16;;;;;;;4.33;1.82;;;;;;;30.27;65.53;99825.15;1684217;84;21146;-70
2021/06/06 08:10:48;;;;;;;4.78;2.75;;;;;;;30.42;62.92;99827.83;1702155;83;20963;-69
2021/06/06 08:13:17;;;;;;;4.35;1.90;;;;;;;30.53;59.21;99823.64;1699173;84;21532;-68
2021/06/06 08:15:45;;;;;;;5.17;2.08;;;;;;;30.76;57.71;99821.98;1699049;84;21101;-70
2021/06/06 08:18:18;;;;;;;3.92;2.20;;;;;;;30.59;53.70;99820.19;1695689;83;20960;-69
2021/06/06 08:20:49;;;;;;;6.17;1.98;;;;;;;30.28;57.86;99820.55;1698107;83;21239;-69
2021/06/06 08:23:15;;;;;;;3.65;1.80;;;;;;;29.95;58.50;99820.38;1705988;83;21039;-69
2021/06/06 08:25:43;;;;;;;3.72;2.00;;;;;;;29.95;65.44;99817.69;1699846;83;20955;-69
2021/06/06 08:28:11;;;;;;;5.33;2.00;;;;;;;30.15;67.25;99818.28;1702787;83;21018;-70
2021/06/06 08:30:45;;;;;;;5.20;2.08;;;;;;;30.28;58.58;99820.00;1671341;84;21067;-68
2021/06/06 08:33:12;;;;;;;4.55;1.60;;;;;;;30.03;58.40;99823.02;1693906;84;21791;-70
2021/06/06 08:35:40;;;;;;;3.95;2.20;;;;;;;29.58;59.69;99825.39;1699353;84;21074;-71
2021/06/06 08:38:07;;;;;;;5.50;1.90;;;;;;;29.38;61.32;99822.81;1687981;83;21075;-73
2021/06/06 08:40:39;;;;;;;3.47;2.20;;;;;;;29.23;62.56;99819.29;1697479;83;21074;-68
2021/06/06 08:43:06;;;;;;;6.00;2.58;;;;;;;29.20;67.92;99818.58;1702249;83;22141;-69
2021/06/06 08:45:46;;;;;;;3.37;2.10;;;;;;;29.30;74.87;99822.28;1701527;83;21146;-67
2021/06/06 08:48:14;;;;;;;4.30;1.90;;;;;;;29.55;75.87;99824.13;1700269;83;20998;-72
2021/06/06 08:50:44;;;;;;;4.28;2.45;;;;;;;29.93;61.88;99818.02;1673952;84;21408;-67
2021/06/06 08:53:33;;;;;;;3.47;1.65;;;;;;;29.95;59.78;99812.31;1682456;84;21040;-67
2021/06/06 08:56:18;;;;;;;5.90;2.10;;;;;;;30.07;59.53;99815.09;1698356;84;21071;-69
2021/06/06 08:58:55;;;;;;;4.28;1.75;;;;;;;30.23;58.38;99814.81;1699083;84;21705;-70
2021/06/06 09:01:40;;;;;;;6.83;2.08;;;;;;;30.05;58.54;99818.11;1711689;82;20976;-69
2021/06/06 09:04:15;;;;;;;3.12;2.17;;;;;;;29.86;64.40;99812.36;1702175;82;21064;-66
2021/06/06 09:06:54;;;;;;;7.50;2.25;;;;;;;29.86;58.75;99804.30;1704973;84;20994;-73
2021/06/06 09:09:29;;;;;;;3.98;2.20;;;;;;;29.52;61.96;99814.58;1703917;84;21000;-72
2021/06/06 09:12:00;;;;;;;4.95;2.22;;;;;;;29.46;70.28;99813.16;1703045;84;21110;-73
2021/06/06 09:14:29;;;;;;;6.05;2.30;;;;;;;29.55;67.66;99810.70;1701941;82;21039;-69
2021/06/06 09:17:09;;;;;;;2.58;1.72;;;;;;;29.60;68.93;99809.77;1689216;84;21101;-68
2021/06/06 09:19:48;;;;;;;;;;;;;;;29.87;68.32;99809.11;1696380;82;21035;-70
2021/06/06 09:22:37;;;;;;;3.70;2.20;;;;;;;30.27;66.99;99805.55;1656979;86;20168;-71
2021/06/06 09:25:11;;;;;;;7.10;2.75;;;;;;;30.69;62.27;99803.66;1688088;84;20995;-70
2021/06/06 09:27:39;;;;;;;3.05;2.02;;;;;;;30.84;57.87;99802.84;1675945;84;21846;-69
2021/06/06 09:30:16;;;;;;;6.05;1.62;;;;;;;30.74;54.22;99804.83;1701131;82;21114;-68
2021/06/06 09:32:44;;;;;;;4.50;2.30;;;;;;;30.63;56.47;99803.62;1697328;83;22103;-72
2021/06/06 09:35:34;;;;;;;4.83;2.15;;;;;;;30.57;56.92;99806.27;1699773;84;21003;-69
2021/06/06 09:38:26;;;;;;;5.05;2.60;;;;;;;30.44;56.96;99795.22;1724876;82;21612;-68
2021/06/06 09:40:53;;;;;;;5.42;2.15;;;;;;;30.24;54.78;99798.13;1685270;82;21145;-73
2021/06/06 09:43:26;;;;;;;6.37;2.20;;;;;;;29.84;56.17;99792.28;1686224;84;21007;-72
2021/06/06 09:46:15;;;;;;;4.30;2.12;;;;;;;29.42;59.71;99794.77;1727058;82;21711;-70
2021/06/06 09:48:43;;;;;;;5.45;2.37;;;;;;;29.17;63.88;99788.34;1693483;84;21022;-72
2021/06/06 09:51:17;;;;;;;3.90;1.90;;;;;;;29.23;69.96;99790.55;1703626;82;21216;-72
2021/06/06 09:53:44;;;;;;;5.53;2.27;;;;;;;29.65;69.15;99789.43;1673613;84;21010;-67
2021/06/06 09:56:27;;;;;;;4.65;2.47;;;;;;;29.93;65.45;99788.98;1708307;82;21493;-68
2021/06/06 09:58:58;;;;;;;3.45;1.90;;;;;;;29.84;60.72;99785.57;1703097;82;21001;-69
2021/06/06 10:01:32;;;;;;;3.33;1.90;;;;;;;29.62;62.50;99787.94;1710044;82;21004;-71
2021/06/06 10:04:04;;;;;;;4.35;2.00;;;;;;;29.22;61.96;99793.00;1698264;83;21593;-70
2021/06/06 10:06:36;;;;;;;6.47;2.72;;;;;;;28.62;62.45;99787.09;1693223;83;22011;-69
2021/06/06 10:09:25;;;;;;;5.45;2.50;;;;;;;28.21;69.95;99793.62;1693672;84;21545;-68
2021/06/06 10:12:05;;;;;;;4.00;2.05;;;;;;;28.15;77.67;99785.50;1663364;84;21604;-68
2021/06/06 10:15:15;;;;;;;5.35;2.15;;;;;;;28.19;74.11;99785.67;1656729;84;21088;-68
2021/06/06 10:18:01;;;;;;;8.05;2.25;;;;;;;28.13;70.13;99782.33;1697488;83;22040;-69
2021/06/06 10:20:34;;;;;;;4.15;1.82;;;;;;;28.02;70.88;99778.36;1694186;83;21324;-71
2021/06/06 10:23:26;;;;;;;8.28;2.35;;;;;;;27.99;74.59;99777.08;1704645;83;21048;-69
2021/06/06 10:26:30;;;;;;;5.00;2.25;;;;;;;28.27;69.18;99766.92;1683503;84;21465;-68
2021/06/06 10:29:04;;;;;;;3.35;1.90;;;;;;;28.31;70.04;99766.53;1702805;83;21086;-68
2021/06/06 10:31:35;;;;;;;3.27;1.75;;;;;;;28.26;71.55;99764.01;1696815;84;22129;-71
2021/06/06 10:34:19;;;;;;;2.85;1.67;;;;;;;28.19;73.92;99773.05;1696647;84;21087;-70
2021/06/06 10:36:46;;;;;;;4.70;2.02;;;;;;;28.18;77.35;99767.99;1646809;84;21127;-68
2021/06/06 10:39:22;;;;;;;5.05;2.05;;;;;;;28.53;71.36;99771.00;1657774;85;21118;-75
2021/06/06 10:42:08;;;;;;;4.22;2.50;;;;;;;28.82;70.31;99761.52;1673124;84;21012;-69
2021/06/06 10:44:46;;;;;;;7.50;2.58;;;;;;;29.21;73.43;99761.91;1671928;85;21152;-70
2021/06/06 10:47:27;;;;;;;3.77;1.75;;;;;;;29.72;67.84;99758.05;1687158;84;20985;-70
2021/06/06 10:50:18;;;;;;;6.50;1.87;;;;;;;29.93;60.47;99757.56;1696949;83;21494;-67
2021/06/06 10:52:44;;;;;;;5.20;2.75;;;;;;;29.83;56.58;99767.31;1697478;84;21019;-70
2021/06/06 10:55:22;;;;;;;2.72;1.87;;;;;;;29.63;59.86;99759.44;1698647;84;21059;-70
2021/06/06 10:57:49;;;;;;;5.37;2.55;;;;;;;29.34;59.30;99756.88;1674652;85;21233;-72
2021/06/06 11:00:26;;;;;;;3.42;1.85;;;;;;;28.95;65.05;99759.80;1698618;84;21987;-67
2021/06/06 11:03:04;;;;;;;4.25;1.95;;;;;;;28.66;68.28;99759.88;1689509;84;20968;-72
2021/06/06 11:05:53;;;;;;;6.00;2.10;;;;;;;28.44;69.02;99760.02;1685568;85;21057;-71
2021/06/06 11:08:34;;;;;;;5.47;2.27;;;;;;;28.47;72.21;99756.16;1657167;86;21050;-71
2021/06/06 11:11:18;;;;;;;5.45;2.10;;;;;;;28.68;71.44;99750.16;1707483;82;21131;-68
2021/06/06 11:14:03;;;;;;;3.52;2.00;;;;;;;28.70;70.05;99762.72;1699932;84;21101;-70
2021/06/06 11:16:48;;;;;;;3.55;2.40;;;;;;;28.58;70.81;99749.94;1714780;83;21042;-68
2021/06/06 11:19:30;;;;;;;4.12;2.30;;;;;;;28.40;83.25;99757.73;1700343;84;20940;-75
2021/06/06 11:22:06;;;;;;;6.90;2.00;;;;;;;28.40;81.65;99751.81;1721528;82;20881;-69
2021/06/06 11:24:44;;;;;;;4.87;1.92;;;;;;;28.43;74.33;99752.53;1698054;84;21508;-70
2021/06/06 11:27:29;;;;;;;4.22;1.70;;;;;;;28.19;72.88;99758.31;1715775;83;20900;-71
2021/06/06 11:30:03;;;;;;;6.08;1.90;;;;;;;27.68;75.33;99757.02;1698939;84;20991;-69
2021/06/06 11:33:06;;;;;;;4.53;1.77;;;;;;;27.51;83.51;99750.27;1715560;83;21518;-71
2021/06/06 11:35:48;;;;;;;4.05;2.47;;;;;;;27.72;85.25;99747.81;1706426;83;21025;-70
2021/06/06 11:38:41;;;;;;;6.75;2.00;;;;;;;28.11;81.02;99749.71;1715963;82;21153;-68
2021/06/06 11:41:16;;;;;;;5.42;2.40;;;;;;;28.39;75.72;99741.42;1709714;82;21565;-68
2021/06/06 11:43:54;;;;;;;4.50;2.40;;;;;;;28.33;75.05;99746.10;1679555;83;21017;-75
2021/06/06 11:46:36;;;;;;;4.28;1.85;;;;;;;28.23;75.27;99744.53;1689007;83;20928;-68
2021/06/06 11:49:29;;;;;;;3.90;2.30;;;;;;;28.04;78.37;99746.14;1701725;83;21069;-74
2021/06/06 11:51:57;;;;;;;3.45;1.80;;;;;;;28.22;79.99;99751.52;1699533;83;21163;-70
2021/06/06 11:54:34;;;;;;;3.05;1.90;;;;;;;28.15;74.69;99750.66;1700869;83;21149;-73